VIS870 KMIA-KORD
Flight info
| Callsign | VIS870 |
|---|---|
| Flight time | 2h 59m |
| Altitude | 40000 |
| Route | HURCN4 KPASA Q118 KAILL/N0492F390 Q118 VOSTK/N0490F400 Q118 HEVAN BONNT VEECK5 |
| Aircraft | B748/H-SDE3FGHIM1M2RWXY/LB1 |
Departure
| Time | 2026-05-05 20:29 |
|---|---|
| Airport | Miami International Airport (KMIA) |
Arrival
| Time | 2026-05-05 23:28 |
|---|---|
| Airport | Chicago O'Hare International Airport (KORD) |
| Time | Latitude | Longitude | Altitude | Speed | Heading |
|---|---|---|---|---|---|
| 2026-05-05 19:23 | 25.79237 | -80.27891 | 29 ft | 0 kts | 117° |
| 2026-05-05 20:14 | 25.79239 | -80.27896 | 28 ft | 2 kts | 117° |
| 2026-05-05 20:15 | 25.79247 | -80.27913 | 28 ft | 2 kts | 117° |
| 2026-05-05 20:15 | 25.79257 | -80.27930 | 28 ft | 3 kts | 147° |
| 2026-05-05 20:15 | 25.79274 | -80.27939 | 27 ft | 3 kts | 183° |
| 2026-05-05 20:15 | 25.79293 | -80.27934 | 26 ft | 3 kts | 218° |
| 2026-05-05 20:16 | 25.79297 | -80.27931 | 27 ft | 0 kts | 218° |
| 2026-05-05 20:21 | 25.79269 | -80.27956 | 26 ft | 10 kts | 218° |
| 2026-05-05 20:21 | 25.79176 | -80.28021 | 28 ft | 21 kts | 207° |
| 2026-05-05 20:21 | 25.79060 | -80.28103 | 28 ft | 11 kts | 240° |
| 2026-05-05 20:21 | 25.79058 | -80.28159 | 29 ft | 5 kts | 287° |
| 2026-05-05 20:22 | 25.79100 | -80.28243 | 29 ft | 21 kts | 300° |
| 2026-05-05 20:22 | 25.79178 | -80.28381 | 31 ft | 15 kts | 319° |
| 2026-05-05 20:22 | 25.79233 | -80.28440 | 27 ft | 16 kts | 304° |
| 2026-05-05 20:22 | 25.79329 | -80.28620 | 28 ft | 33 kts | 300° |
| 2026-05-05 20:23 | 25.79442 | -80.28841 | 27 ft | 33 kts | 300° |
| 2026-05-05 20:23 | 25.79553 | -80.29059 | 26 ft | 32 kts | 299° |
| 2026-05-05 20:23 | 25.79661 | -80.29266 | 28 ft | 31 kts | 298° |
| 2026-05-05 20:23 | 25.79764 | -80.29475 | 29 ft | 31 kts | 299° |
| 2026-05-05 20:24 | 25.79875 | -80.29682 | 25 ft | 27 kts | 301° |
| 2026-05-05 20:24 | 25.79892 | -80.29821 | 24 ft | 16 kts | 264° |
| 2026-05-05 20:24 | 25.79894 | -80.29922 | 22 ft | 9 kts | 290° |
| 2026-05-05 20:24 | 25.79903 | -80.29956 | 23 ft | 0 kts | 285° |
| 2026-05-05 20:27 | 25.79917 | -80.30003 | 23 ft | 15 kts | 288° |
| 2026-05-05 20:27 | 25.79934 | -80.30097 | 25 ft | 6 kts | 260° |
| 2026-05-05 20:27 | 25.79911 | -80.30129 | 26 ft | 4 kts | 206° |
| 2026-05-05 20:27 | 25.79879 | -80.30129 | 25 ft | 5 kts | 162° |
| 2026-05-05 20:28 | 25.79864 | -80.30109 | 25 ft | 2 kts | 116° |
| 2026-05-05 20:28 | 25.79857 | -80.30090 | 26 ft | 8 kts | 115° |
| 2026-05-05 20:28 | 25.79637 | -80.29650 | 29 ft | 121 kts | 119° |
| 2026-05-05 20:28 | 25.79064 | -80.28581 | 239 ft | 187 kts | 120° |
| 2026-05-05 20:29 | 25.78289 | -80.27280 | 857 ft | 212 kts | 124° |
| 2026-05-05 20:29 | 25.77413 | -80.25966 | 1845 ft | 213 kts | 123° |
| 2026-05-05 20:29 | 25.76921 | -80.24351 | 2506 ft | 236 kts | 89° |
| 2026-05-05 20:29 | 25.77344 | -80.22534 | 3129 ft | 263 kts | 59° |
| 2026-05-05 20:30 | 25.78471 | -80.20767 | 3880 ft | 301 kts | 52° |
| 2026-05-05 20:30 | 25.79802 | -80.18787 | 4883 ft | 337 kts | 49° |
| 2026-05-05 20:30 | 25.81541 | -80.16888 | 6045 ft | 365 kts | 35° |
| 2026-05-05 20:30 | 25.83854 | -80.15559 | 7282 ft | 386 kts | 17° |
| 2026-05-05 20:31 | 25.86533 | -80.15016 | 8659 ft | 401 kts | 0° |
| 2026-05-05 20:31 | 25.89368 | -80.15207 | 9874 ft | 422 kts | 348° |
| 2026-05-05 20:31 | 25.92323 | -80.16103 | 10025 ft | 463 kts | 337° |
| 2026-05-05 20:31 | 25.95300 | -80.17748 | 10019 ft | 499 kts | 326° |
| 2026-05-05 20:32 | 25.98098 | -80.20170 | 10014 ft | 527 kts | 315° |
| 2026-05-05 20:32 | 26.00513 | -80.23233 | 10009 ft | 530 kts | 304° |
| 2026-05-05 20:32 | 26.02377 | -80.26767 | 10009 ft | 528 kts | 294° |
| 2026-05-05 20:32 | 26.03730 | -80.30560 | 10010 ft | 527 kts | 288° |
| 2026-05-05 20:33 | 26.04840 | -80.34442 | 10012 ft | 523 kts | 286° |
| 2026-05-05 20:33 | 26.05845 | -80.38187 | 10470 ft | 486 kts | 286° |
| 2026-05-05 20:33 | 26.06845 | -80.41602 | 11198 ft | 445 kts | 290° |
| 2026-05-05 20:33 | 26.07996 | -80.44614 | 11928 ft | 403 kts | 294° |
| 2026-05-05 20:34 | 26.09076 | -80.47271 | 12636 ft | 362 kts | 292° |
| 2026-05-05 20:34 | 26.09958 | -80.49733 | 13362 ft | 323 kts | 290° |
| 2026-05-05 20:34 | 26.10703 | -80.51932 | 14065 ft | 295 kts | 290° |
| 2026-05-05 20:34 | 26.11468 | -80.54085 | 14747 ft | 303 kts | 292° |
| 2026-05-05 20:35 | 26.12275 | -80.56296 | 15489 ft | 314 kts | 292° |
| 2026-05-05 20:35 | 26.13118 | -80.58579 | 16256 ft | 324 kts | 297° |
| 2026-05-05 20:35 | 26.14374 | -80.60685 | 17071 ft | 333 kts | 306° |
| 2026-05-05 20:35 | 26.15794 | -80.62763 | 17889 ft | 342 kts | 307° |
| 2026-05-05 20:36 | 26.17265 | -80.64888 | 18664 ft | 350 kts | 307° |
| 2026-05-05 20:36 | 26.18762 | -80.67070 | 19402 ft | 359 kts | 306° |
| 2026-05-05 20:36 | 26.20284 | -80.69301 | 20151 ft | 366 kts | 306° |
| 2026-05-05 20:36 | 26.21823 | -80.71555 | 20917 ft | 373 kts | 306° |
| 2026-05-05 20:37 | 26.23405 | -80.73865 | 21689 ft | 380 kts | 306° |
| 2026-05-05 20:37 | 26.25021 | -80.76228 | 22492 ft | 385 kts | 306° |
| 2026-05-05 20:37 | 26.26653 | -80.78617 | 23351 ft | 389 kts | 306° |
| 2026-05-05 20:37 | 26.28294 | -80.81022 | 24074 ft | 392 kts | 306° |
| 2026-05-05 20:38 | 26.29952 | -80.83451 | 24777 ft | 395 kts | 306° |
| 2026-05-05 20:38 | 26.31617 | -80.85893 | 25504 ft | 396 kts | 306° |
| 2026-05-05 20:38 | 26.33285 | -80.88339 | 26250 ft | 397 kts | 306° |
| 2026-05-05 20:38 | 26.34935 | -80.90761 | 26998 ft | 397 kts | 306° |
| 2026-05-05 20:39 | 26.36694 | -80.93130 | 27780 ft | 397 kts | 313° |
| 2026-05-05 20:39 | 26.38692 | -80.95250 | 28595 ft | 396 kts | 315° |
| 2026-05-05 20:39 | 26.40698 | -80.97354 | 29377 ft | 397 kts | 315° |
| 2026-05-05 20:39 | 26.42753 | -80.99516 | 29420 ft | 415 kts | 315° |
| 2026-05-05 20:40 | 26.44889 | -81.01761 | 29504 ft | 430 kts | 315° |
| 2026-05-05 20:40 | 26.47042 | -81.04018 | 29617 ft | 427 kts | 315° |
| 2026-05-05 20:40 | 26.49232 | -81.06317 | 29783 ft | 439 kts | 315° |
| 2026-05-05 20:40 | 26.51485 | -81.08690 | 29942 ft | 452 kts | 315° |
| 2026-05-05 20:41 | 26.53799 | -81.11128 | 30109 ft | 463 kts | 315° |
| 2026-05-05 20:41 | 26.56161 | -81.13618 | 30231 ft | 473 kts | 315° |
| 2026-05-05 20:41 | 26.58585 | -81.16175 | 30371 ft | 482 kts | 315° |
| 2026-05-05 20:41 | 26.61066 | -81.18749 | 30511 ft | 490 kts | 318° |
| 2026-05-05 20:42 | 26.63817 | -81.21015 | 30652 ft | 493 kts | 325° |
| 2026-05-05 20:42 | 26.66832 | -81.22848 | 30797 ft | 495 kts | 333° |
| 2026-05-05 20:42 | 26.70023 | -81.24306 | 30928 ft | 496 kts | 335° |
| 2026-05-05 20:42 | 26.73228 | -81.25732 | 31053 ft | 495 kts | 335° |
| 2026-05-05 20:43 | 26.76381 | -81.27132 | 31169 ft | 494 kts | 335° |
| 2026-05-05 20:43 | 26.79571 | -81.28548 | 31290 ft | 493 kts | 335° |
| 2026-05-05 20:43 | 26.82741 | -81.29958 | 31411 ft | 492 kts | 335° |
| 2026-05-05 20:43 | 26.85935 | -81.31380 | 31537 ft | 491 kts | 335° |
| 2026-05-05 20:44 | 26.89105 | -81.32792 | 31648 ft | 490 kts | 335° |
| 2026-05-05 20:44 | 26.92264 | -81.34198 | 31776 ft | 489 kts | 335° |
| 2026-05-05 20:44 | 26.95432 | -81.35610 | 31894 ft | 488 kts | 335° |
| 2026-05-05 20:44 | 26.98587 | -81.37018 | 32019 ft | 487 kts | 335° |
| 2026-05-05 20:45 | 27.04833 | -81.39807 | 32256 ft | 486 kts | 335° |
| 2026-05-05 20:45 | 27.07969 | -81.41208 | 32381 ft | 485 kts | 335° |
| 2026-05-05 20:45 | 27.11095 | -81.42606 | 32505 ft | 484 kts | 334° |
| 2026-05-05 20:46 | 27.14215 | -81.44002 | 32624 ft | 483 kts | 334° |
| 2026-05-05 20:46 | 27.17330 | -81.45396 | 32751 ft | 482 kts | 334° |
| 2026-05-05 20:46 | 27.20446 | -81.46792 | 32880 ft | 481 kts | 334° |
| 2026-05-05 20:46 | 27.23555 | -81.48186 | 33001 ft | 480 kts | 334° |
| 2026-05-05 20:47 | 27.26612 | -81.49557 | 33127 ft | 479 kts | 334° |
| 2026-05-05 20:47 | 27.29710 | -81.50947 | 33252 ft | 478 kts | 334° |
| 2026-05-05 20:47 | 27.32797 | -81.52333 | 33382 ft | 478 kts | 334° |
| 2026-05-05 20:47 | 27.35876 | -81.53717 | 33507 ft | 477 kts | 334° |
| 2026-05-05 20:48 | 27.38956 | -81.55101 | 33638 ft | 476 kts | 334° |
| 2026-05-05 20:48 | 27.42020 | -81.56480 | 33764 ft | 475 kts | 334° |
| 2026-05-05 20:48 | 27.45087 | -81.57860 | 33892 ft | 473 kts | 334° |
| 2026-05-05 20:48 | 27.48145 | -81.59237 | 34024 ft | 473 kts | 334° |
| 2026-05-05 20:49 | 27.51190 | -81.60610 | 34128 ft | 472 kts | 334° |
| 2026-05-05 20:49 | 27.54238 | -81.61984 | 34248 ft | 471 kts | 334° |
| 2026-05-05 20:49 | 27.57229 | -81.63333 | 34362 ft | 470 kts | 334° |
| 2026-05-05 20:49 | 27.60275 | -81.64708 | 34465 ft | 469 kts | 334° |
| 2026-05-05 20:50 | 27.63306 | -81.66078 | 34582 ft | 469 kts | 334° |
| 2026-05-05 20:50 | 27.66328 | -81.67444 | 34699 ft | 468 kts | 334° |
| 2026-05-05 20:50 | 27.69342 | -81.68807 | 34817 ft | 467 kts | 334° |
| 2026-05-05 20:50 | 27.72357 | -81.70171 | 34938 ft | 466 kts | 334° |
| 2026-05-05 20:51 | 27.75324 | -81.71515 | 35050 ft | 466 kts | 334° |
| 2026-05-05 20:51 | 27.78370 | -81.72895 | 35170 ft | 465 kts | 334° |
| 2026-05-05 20:51 | 27.81330 | -81.74237 | 35292 ft | 464 kts | 334° |
| 2026-05-05 20:51 | 27.84319 | -81.75592 | 35402 ft | 463 kts | 334° |
| 2026-05-05 20:52 | 27.87299 | -81.76945 | 35524 ft | 462 kts | 334° |
| 2026-05-05 20:52 | 27.90283 | -81.78300 | 35644 ft | 461 kts | 334° |
| 2026-05-05 20:52 | 27.93261 | -81.79653 | 35754 ft | 460 kts | 334° |
| 2026-05-05 20:52 | 27.96230 | -81.81003 | 35879 ft | 460 kts | 334° |
| 2026-05-05 20:53 | 27.99195 | -81.82352 | 36003 ft | 459 kts | 333° |
| 2026-05-05 20:53 | 28.02155 | -81.83700 | 36118 ft | 458 kts | 333° |
| 2026-05-05 20:53 | 28.05072 | -81.85028 | 36248 ft | 458 kts | 333° |
| 2026-05-05 20:53 | 28.08021 | -81.86373 | 36372 ft | 457 kts | 333° |
| 2026-05-05 20:54 | 28.10967 | -81.87716 | 36490 ft | 456 kts | 333° |
| 2026-05-05 20:54 | 28.13905 | -81.89057 | 36613 ft | 455 kts | 333° |
| 2026-05-05 20:54 | 28.16799 | -81.90478 | 36744 ft | 451 kts | 328° |
| 2026-05-05 20:54 | 28.19489 | -81.92246 | 36881 ft | 447 kts | 322° |
| 2026-05-05 20:55 | 28.22049 | -81.94265 | 37002 ft | 446 kts | 322° |
| 2026-05-05 20:55 | 28.24581 | -81.96256 | 37129 ft | 445 kts | 322° |
| 2026-05-05 20:55 | 28.27128 | -81.98262 | 37255 ft | 444 kts | 322° |
| 2026-05-05 20:55 | 28.29662 | -82.00272 | 37388 ft | 443 kts | 322° |
| 2026-05-05 20:56 | 28.32149 | -82.02246 | 37505 ft | 442 kts | 322° |
| 2026-05-05 20:56 | 28.34674 | -82.04245 | 37626 ft | 442 kts | 322° |
| 2026-05-05 20:56 | 28.37188 | -82.06235 | 37768 ft | 441 kts | 322° |
| 2026-05-05 20:56 | 28.39701 | -82.08228 | 37888 ft | 440 kts | 321° |
| 2026-05-05 20:57 | 28.42205 | -82.10217 | 38009 ft | 439 kts | 321° |
| 2026-05-05 20:57 | 28.44711 | -82.12207 | 38159 ft | 438 kts | 321° |
| 2026-05-05 20:57 | 28.47207 | -82.14190 | 38278 ft | 437 kts | 321° |
| 2026-05-05 20:57 | 28.49695 | -82.16168 | 38419 ft | 437 kts | 321° |
| 2026-05-05 20:58 | 28.52149 | -82.18122 | 38551 ft | 436 kts | 321° |
| 2026-05-05 20:58 | 28.54629 | -82.20097 | 38679 ft | 435 kts | 321° |
| 2026-05-05 20:58 | 28.57103 | -82.22067 | 38798 ft | 434 kts | 321° |
| 2026-05-05 20:58 | 28.59576 | -82.24039 | 38910 ft | 433 kts | 321° |
| 2026-05-05 20:59 | 28.62037 | -82.26002 | 39017 ft | 432 kts | 321° |
| 2026-05-05 20:59 | 28.64501 | -82.27968 | 39131 ft | 432 kts | 321° |
| 2026-05-05 20:59 | 28.66953 | -82.29927 | 39249 ft | 431 kts | 321° |
| 2026-05-05 20:59 | 28.69408 | -82.31888 | 39352 ft | 430 kts | 321° |
| 2026-05-05 21:00 | 28.71823 | -82.33819 | 39466 ft | 430 kts | 321° |
| 2026-05-05 21:00 | 28.74265 | -82.35773 | 39589 ft | 429 kts | 321° |
| 2026-05-05 21:00 | 28.76702 | -82.37723 | 39699 ft | 428 kts | 321° |
| 2026-05-05 21:00 | 28.79132 | -82.39669 | 39817 ft | 427 kts | 321° |
| 2026-05-05 21:01 | 28.81563 | -82.41618 | 39935 ft | 426 kts | 321° |
| 2026-05-05 21:01 | 28.83989 | -82.43563 | 40046 ft | 426 kts | 321° |
| 2026-05-05 21:01 | 28.88823 | -82.47441 | 40034 ft | 417 kts | 321° |
| 2026-05-05 21:02 | 28.91157 | -82.49312 | 40035 ft | 405 kts | 321° |
| 2026-05-05 21:02 | 28.93402 | -82.51117 | 40036 ft | 397 kts | 320° |
| 2026-05-05 21:02 | 28.98025 | -82.54848 | 40056 ft | 417 kts | 321° |
| 2026-05-05 21:03 | 29.02861 | -82.58734 | 40061 ft | 428 kts | 321° |
| 2026-05-05 21:03 | 29.07732 | -82.62662 | 40040 ft | 429 kts | 320° |
| 2026-05-05 21:04 | 29.12597 | -82.66588 | 40044 ft | 428 kts | 320° |
| 2026-05-05 21:04 | 29.17427 | -82.70491 | 40037 ft | 428 kts | 320° |
| 2026-05-05 21:05 | 29.22279 | -82.74417 | 40035 ft | 427 kts | 320° |
| 2026-05-05 21:05 | 29.27136 | -82.78351 | 40044 ft | 427 kts | 320° |
| 2026-05-05 21:06 | 29.31987 | -82.82285 | 40039 ft | 427 kts | 320° |
| 2026-05-05 21:06 | 29.36836 | -82.86223 | 40047 ft | 427 kts | 320° |
| 2026-05-05 21:07 | 29.41648 | -82.90134 | 40048 ft | 427 kts | 320° |
| 2026-05-05 21:07 | 29.46494 | -82.94078 | 40045 ft | 427 kts | 320° |
| 2026-05-05 21:08 | 29.51410 | -82.97899 | 40054 ft | 430 kts | 326° |
| 2026-05-05 21:08 | 29.56905 | -83.00755 | 40051 ft | 436 kts | 331° |
| 2026-05-05 21:09 | 29.62459 | -83.03418 | 40054 ft | 435 kts | 331° |
| 2026-05-05 21:09 | 29.68062 | -83.06081 | 40056 ft | 435 kts | 331° |
| 2026-05-05 21:10 | 29.73653 | -83.08754 | 40056 ft | 435 kts | 330° |
| 2026-05-05 21:10 | 29.79239 | -83.11422 | 40055 ft | 435 kts | 330° |
| 2026-05-05 21:11 | 29.84828 | -83.14097 | 40053 ft | 434 kts | 330° |
| 2026-05-05 21:11 | 29.90366 | -83.16751 | 40053 ft | 434 kts | 330° |
| 2026-05-05 21:12 | 29.95951 | -83.19430 | 40046 ft | 434 kts | 330° |
| 2026-05-05 21:12 | 30.01524 | -83.22107 | 40053 ft | 434 kts | 330° |
| 2026-05-05 21:13 | 30.07100 | -83.24787 | 40056 ft | 434 kts | 330° |
| 2026-05-05 21:13 | 30.12637 | -83.27454 | 40058 ft | 434 kts | 330° |
| 2026-05-05 21:14 | 30.18203 | -83.30137 | 40059 ft | 434 kts | 330° |
| 2026-05-05 21:14 | 30.23771 | -83.32825 | 40056 ft | 434 kts | 330° |
| 2026-05-05 21:15 | 30.29340 | -83.35512 | 40061 ft | 434 kts | 330° |
| 2026-05-05 21:15 | 30.34871 | -83.38185 | 40058 ft | 433 kts | 330° |
| 2026-05-05 21:16 | 30.40436 | -83.40879 | 40055 ft | 433 kts | 330° |
| 2026-05-05 21:16 | 30.45997 | -83.43572 | 40056 ft | 433 kts | 330° |
| 2026-05-05 21:17 | 30.51556 | -83.46269 | 40053 ft | 433 kts | 330° |
| 2026-05-05 21:17 | 30.57120 | -83.48971 | 40050 ft | 433 kts | 330° |
| 2026-05-05 21:18 | 30.62639 | -83.51656 | 40051 ft | 433 kts | 330° |
| 2026-05-05 21:18 | 30.68195 | -83.54361 | 40049 ft | 433 kts | 330° |
| 2026-05-05 21:19 | 30.73752 | -83.57071 | 40049 ft | 433 kts | 330° |
| 2026-05-05 21:19 | 30.79299 | -83.59778 | 40063 ft | 433 kts | 330° |
| 2026-05-05 21:20 | 30.84813 | -83.62473 | 40053 ft | 433 kts | 330° |
| 2026-05-05 21:20 | 30.90360 | -83.65188 | 40055 ft | 433 kts | 330° |
| 2026-05-05 21:21 | 30.95909 | -83.67906 | 40050 ft | 433 kts | 330° |
| 2026-05-05 21:21 | 31.01458 | -83.70629 | 40041 ft | 433 kts | 330° |
| 2026-05-05 21:22 | 31.06968 | -83.73335 | 40042 ft | 432 kts | 330° |
| 2026-05-05 21:22 | 31.12510 | -83.76061 | 40047 ft | 433 kts | 330° |
| 2026-05-05 21:23 | 31.18060 | -83.78795 | 40036 ft | 433 kts | 330° |
| 2026-05-05 21:23 | 31.23607 | -83.81530 | 40041 ft | 433 kts | 330° |
| 2026-05-05 21:24 | 31.29152 | -83.84267 | 40045 ft | 433 kts | 330° |
| 2026-05-05 21:24 | 31.34668 | -83.86994 | 40038 ft | 433 kts | 330° |
| 2026-05-05 21:25 | 31.40221 | -83.89743 | 40037 ft | 433 kts | 330° |
| 2026-05-05 21:25 | 31.45767 | -83.92492 | 40039 ft | 433 kts | 330° |
| 2026-05-05 21:26 | 31.51347 | -83.95186 | 40049 ft | 437 kts | 334° |
| 2026-05-05 21:26 | 31.57341 | -83.96845 | 40039 ft | 446 kts | 340° |
| 2026-05-05 21:27 | 31.63396 | -83.98200 | 40042 ft | 446 kts | 340° |
| 2026-05-05 21:27 | 31.69497 | -83.99551 | 40042 ft | 446 kts | 340° |
| 2026-05-05 21:28 | 31.75591 | -84.00909 | 40041 ft | 446 kts | 340° |
| 2026-05-05 21:28 | 31.81699 | -84.02269 | 40035 ft | 446 kts | 340° |
| 2026-05-05 21:29 | 31.87757 | -84.03620 | 40026 ft | 446 kts | 340° |
| 2026-05-05 21:29 | 31.93852 | -84.04982 | 40021 ft | 446 kts | 340° |
| 2026-05-05 21:30 | 31.99946 | -84.06346 | 40016 ft | 446 kts | 340° |
| 2026-05-05 21:30 | 32.06054 | -84.07713 | 40005 ft | 446 kts | 340° |
| 2026-05-05 21:31 | 32.12145 | -84.09080 | 40009 ft | 446 kts | 340° |
| 2026-05-05 21:31 | 32.18203 | -84.10440 | 40011 ft | 446 kts | 340° |
| 2026-05-05 21:32 | 32.24300 | -84.11811 | 40012 ft | 446 kts | 340° |
| 2026-05-05 21:32 | 32.30401 | -84.13186 | 40010 ft | 446 kts | 340° |
| 2026-05-05 21:33 | 32.36498 | -84.14561 | 40015 ft | 446 kts | 340° |
| 2026-05-05 21:33 | 32.42556 | -84.15929 | 40015 ft | 446 kts | 340° |
| 2026-05-05 21:34 | 32.48652 | -84.17307 | 40013 ft | 446 kts | 340° |
| 2026-05-05 21:34 | 32.54757 | -84.18690 | 40015 ft | 446 kts | 340° |
| 2026-05-05 21:35 | 32.60852 | -84.20072 | 40014 ft | 446 kts | 340° |
| 2026-05-05 21:35 | 32.66898 | -84.21445 | 40016 ft | 446 kts | 340° |
| 2026-05-05 21:36 | 32.73009 | -84.22835 | 40026 ft | 447 kts | 340° |
| 2026-05-05 21:36 | 32.79113 | -84.24224 | 40036 ft | 447 kts | 340° |
| 2026-05-05 21:37 | 32.85221 | -84.25617 | 40039 ft | 447 kts | 340° |
| 2026-05-05 21:37 | 32.91327 | -84.27012 | 40047 ft | 447 kts | 340° |
| 2026-05-05 21:38 | 32.97397 | -84.28400 | 40049 ft | 447 kts | 340° |
| 2026-05-05 21:38 | 33.03521 | -84.29802 | 40045 ft | 448 kts | 340° |
| 2026-05-05 21:39 | 33.09633 | -84.31203 | 40038 ft | 448 kts | 340° |
| 2026-05-05 21:39 | 33.15761 | -84.32611 | 40035 ft | 448 kts | 340° |
| 2026-05-05 21:40 | 33.21831 | -84.34007 | 40044 ft | 448 kts | 340° |
| 2026-05-05 21:40 | 33.27951 | -84.35416 | 40052 ft | 448 kts | 340° |
| 2026-05-05 21:41 | 33.34079 | -84.36829 | 40056 ft | 448 kts | 340° |
| 2026-05-05 21:41 | 33.40197 | -84.38242 | 40054 ft | 448 kts | 340° |
| 2026-05-05 21:42 | 33.46317 | -84.39658 | 40056 ft | 448 kts | 340° |
| 2026-05-05 21:42 | 33.52402 | -84.41067 | 40029 ft | 448 kts | 340° |
| 2026-05-05 21:43 | 33.58522 | -84.42487 | 40021 ft | 448 kts | 340° |
| 2026-05-05 21:43 | 33.64649 | -84.43906 | 40030 ft | 449 kts | 341° |
| 2026-05-05 21:44 | 33.70808 | -84.45233 | 40025 ft | 450 kts | 341° |
| 2026-05-05 21:44 | 33.76912 | -84.46586 | 40008 ft | 450 kts | 341° |
| 2026-05-05 21:45 | 33.83069 | -84.47939 | 39999 ft | 450 kts | 341° |
| 2026-05-05 21:45 | 33.89216 | -84.49294 | 40002 ft | 450 kts | 341° |
| 2026-05-05 21:46 | 33.95379 | -84.50657 | 39999 ft | 450 kts | 341° |
| 2026-05-05 21:46 | 34.01544 | -84.52020 | 40037 ft | 451 kts | 341° |
| 2026-05-05 21:47 | 34.07789 | -84.52832 | 40040 ft | 458 kts | 346° |
| 2026-05-05 21:47 | 34.14144 | -84.53508 | 40027 ft | 458 kts | 346° |
| 2026-05-05 21:48 | 34.20499 | -84.54167 | 40023 ft | 458 kts | 346° |
| 2026-05-05 21:48 | 34.26852 | -84.54836 | 40033 ft | 458 kts | 346° |
| 2026-05-05 21:49 | 34.33157 | -84.55497 | 40034 ft | 458 kts | 346° |
| 2026-05-05 21:49 | 34.39509 | -84.56164 | 40029 ft | 458 kts | 346° |
| 2026-05-05 21:50 | 34.45862 | -84.56834 | 40022 ft | 458 kts | 346° |
| 2026-05-05 21:50 | 34.52214 | -84.57503 | 40012 ft | 458 kts | 346° |
| 2026-05-05 21:51 | 34.58528 | -84.58170 | 40006 ft | 458 kts | 346° |
| 2026-05-05 21:51 | 34.64877 | -84.58842 | 39995 ft | 458 kts | 346° |
| 2026-05-05 21:52 | 34.74391 | -84.59851 | 39993 ft | 458 kts | 346° |
| 2026-05-05 21:53 | 34.80695 | -84.60519 | 40009 ft | 458 kts | 346° |
| 2026-05-05 21:53 | 34.87031 | -84.61193 | 39990 ft | 457 kts | 346° |
| 2026-05-05 21:54 | 34.93372 | -84.61869 | 39988 ft | 457 kts | 346° |
| 2026-05-05 21:54 | 34.99710 | -84.62544 | 39970 ft | 457 kts | 346° |
| 2026-05-05 21:55 | 35.06000 | -84.63217 | 39960 ft | 457 kts | 346° |
| 2026-05-05 21:55 | 35.12345 | -84.63896 | 39960 ft | 457 kts | 346° |
| 2026-05-05 21:56 | 35.18685 | -84.64575 | 39951 ft | 457 kts | 346° |
| 2026-05-05 21:56 | 35.25017 | -84.65255 | 39957 ft | 457 kts | 345° |
| 2026-05-05 21:57 | 35.31355 | -84.65936 | 39976 ft | 457 kts | 345° |
| 2026-05-05 21:57 | 35.37650 | -84.66614 | 39968 ft | 457 kts | 345° |
| 2026-05-05 21:58 | 35.43980 | -84.67297 | 39973 ft | 458 kts | 345° |
| 2026-05-05 21:58 | 35.50334 | -84.67983 | 39971 ft | 458 kts | 345° |
| 2026-05-05 21:59 | 35.56639 | -84.68666 | 39959 ft | 458 kts | 345° |
| 2026-05-05 21:59 | 35.62987 | -84.69353 | 39959 ft | 458 kts | 345° |
| 2026-05-05 22:00 | 35.69339 | -84.70042 | 39965 ft | 458 kts | 345° |
| 2026-05-05 22:00 | 35.74618 | -84.70617 | 39962 ft | 459 kts | 345° |
| 2026-05-05 22:01 | 35.82055 | -84.71426 | 39968 ft | 459 kts | 345° |
| 2026-05-05 22:01 | 35.88380 | -84.72116 | 39959 ft | 460 kts | 345° |
| 2026-05-05 22:02 | 35.94752 | -84.72812 | 39962 ft | 460 kts | 345° |
| 2026-05-05 22:02 | 36.01136 | -84.73511 | 39963 ft | 461 kts | 345° |
| 2026-05-05 22:03 | 36.06444 | -84.74092 | 39956 ft | 461 kts | 345° |
| 2026-05-05 22:03 | 36.13880 | -84.74908 | 39949 ft | 462 kts | 345° |
| 2026-05-05 22:04 | 36.20278 | -84.75611 | 39920 ft | 462 kts | 345° |
| 2026-05-05 22:04 | 36.26683 | -84.76322 | 39869 ft | 465 kts | 348° |
| 2026-05-05 22:05 | 36.32009 | -84.76902 | 39918 ft | 462 kts | 345° |
| 2026-05-05 22:05 | 36.38414 | -84.77613 | 39937 ft | 463 kts | 345° |
| 2026-05-05 22:06 | 36.44898 | -84.77959 | 39920 ft | 473 kts | 351° |
| 2026-05-05 22:06 | 36.51428 | -84.77769 | 39929 ft | 473 kts | 351° |
| 2026-05-05 22:07 | 36.58013 | -84.77580 | 39920 ft | 474 kts | 351° |
| 2026-05-05 22:07 | 36.64613 | -84.77386 | 39929 ft | 474 kts | 351° |
| 2026-05-05 22:08 | 36.71222 | -84.77196 | 39919 ft | 475 kts | 351° |
| 2026-05-05 22:08 | 36.77826 | -84.77000 | 39940 ft | 475 kts | 351° |
| 2026-05-05 22:09 | 36.84390 | -84.76811 | 39923 ft | 475 kts | 351° |
| 2026-05-05 22:09 | 36.91001 | -84.76616 | 39936 ft | 475 kts | 351° |
| 2026-05-05 22:10 | 36.97624 | -84.76423 | 39921 ft | 476 kts | 351° |
| 2026-05-05 22:10 | 37.04245 | -84.76228 | 39895 ft | 476 kts | 351° |
| 2026-05-05 22:11 | 37.10876 | -84.76033 | 39885 ft | 477 kts | 351° |
| 2026-05-05 22:11 | 37.17459 | -84.75838 | 39896 ft | 477 kts | 352° |
| 2026-05-05 22:12 | 37.24094 | -84.75642 | 39889 ft | 477 kts | 351° |
| 2026-05-05 22:12 | 37.30729 | -84.75447 | 39902 ft | 477 kts | 352° |
| 2026-05-05 22:13 | 37.37376 | -84.75240 | 39897 ft | 478 kts | 352° |
| 2026-05-05 22:13 | 37.43982 | -84.75018 | 39911 ft | 478 kts | 352° |
| 2026-05-05 22:14 | 37.50638 | -84.74805 | 39907 ft | 479 kts | 352° |
| 2026-05-05 22:14 | 37.57301 | -84.74585 | 39917 ft | 479 kts | 352° |
| 2026-05-05 22:15 | 37.63982 | -84.74367 | 39908 ft | 480 kts | 352° |
| 2026-05-05 22:15 | 37.70620 | -84.74149 | 39910 ft | 481 kts | 352° |
| 2026-05-05 22:16 | 37.77315 | -84.73939 | 39890 ft | 481 kts | 352° |
| 2026-05-05 22:16 | 37.84016 | -84.73735 | 39888 ft | 482 kts | 352° |
| 2026-05-05 22:17 | 37.90721 | -84.73525 | 39887 ft | 482 kts | 352° |
| 2026-05-05 22:17 | 37.97433 | -84.73319 | 39898 ft | 483 kts | 352° |
| 2026-05-05 22:18 | 38.04113 | -84.73110 | 39889 ft | 483 kts | 352° |
| 2026-05-05 22:18 | 38.10839 | -84.72902 | 39887 ft | 484 kts | 352° |
| 2026-05-05 22:19 | 38.17568 | -84.72692 | 39862 ft | 485 kts | 352° |
| 2026-05-05 22:19 | 38.24278 | -84.72482 | 39867 ft | 485 kts | 352° |
| 2026-05-05 22:20 | 38.31031 | -84.72271 | 39860 ft | 486 kts | 352° |
| 2026-05-05 22:20 | 38.37801 | -84.72058 | 39864 ft | 487 kts | 352° |
| 2026-05-05 22:21 | 38.44568 | -84.71968 | 39863 ft | 481 kts | 346° |
| 2026-05-05 22:21 | 38.50992 | -84.73575 | 39864 ft | 463 kts | 333° |
| 2026-05-05 22:22 | 38.56957 | -84.76307 | 39793 ft | 451 kts | 331° |
| 2026-05-05 22:22 | 38.62838 | -84.79042 | 39835 ft | 451 kts | 330° |
| 2026-05-05 22:23 | 38.68746 | -84.81780 | 39844 ft | 451 kts | 331° |
| 2026-05-05 22:23 | 38.74648 | -84.84523 | 39847 ft | 451 kts | 330° |
| 2026-05-05 22:24 | 38.80554 | -84.87273 | 39849 ft | 452 kts | 330° |
| 2026-05-05 22:24 | 38.86429 | -84.90013 | 39850 ft | 453 kts | 330° |
| 2026-05-05 22:25 | 38.92360 | -84.92784 | 39851 ft | 453 kts | 330° |
| 2026-05-05 22:25 | 38.98277 | -84.95553 | 39852 ft | 453 kts | 330° |
| 2026-05-05 22:26 | 39.04175 | -84.98317 | 39849 ft | 454 kts | 330° |
| 2026-05-05 22:26 | 39.10101 | -85.01099 | 39850 ft | 454 kts | 330° |
| 2026-05-05 22:27 | 39.16050 | -85.03898 | 39846 ft | 455 kts | 330° |
| 2026-05-05 22:27 | 39.22000 | -85.06702 | 39832 ft | 456 kts | 330° |
| 2026-05-05 22:28 | 39.27953 | -85.09512 | 39847 ft | 456 kts | 330° |
| 2026-05-05 22:28 | 39.33888 | -85.12319 | 39849 ft | 457 kts | 330° |
| 2026-05-05 22:29 | 39.39872 | -85.15154 | 39851 ft | 458 kts | 330° |
| 2026-05-05 22:29 | 39.45857 | -85.17992 | 39850 ft | 459 kts | 330° |
| 2026-05-05 22:30 | 39.51854 | -85.20842 | 39848 ft | 459 kts | 330° |
| 2026-05-05 22:30 | 39.57843 | -85.23697 | 38906 ft | 462 kts | 330° |
| 2026-05-05 22:30 | 39.60834 | -85.25113 | 37947 ft | 454 kts | 330° |
| 2026-05-05 22:31 | 39.63763 | -85.26506 | 37001 ft | 444 kts | 330° |
| 2026-05-05 22:31 | 39.66609 | -85.27860 | 36077 ft | 425 kts | 329° |
| 2026-05-05 22:31 | 39.69315 | -85.29151 | 35146 ft | 405 kts | 329° |
| 2026-05-05 22:31 | 39.71887 | -85.30377 | 34238 ft | 381 kts | 328° |
| 2026-05-05 22:32 | 39.74328 | -85.31554 | 33199 ft | 371 kts | 328° |
| 2026-05-05 22:32 | 39.76738 | -85.32730 | 32129 ft | 370 kts | 329° |
| 2026-05-05 22:32 | 39.79153 | -85.33893 | 31078 ft | 370 kts | 330° |
| 2026-05-05 22:32 | 39.81547 | -85.35035 | 30091 ft | 372 kts | 331° |
| 2026-05-05 22:33 | 39.83983 | -85.36201 | 28970 ft | 375 kts | 331° |
| 2026-05-05 22:33 | 39.86439 | -85.37382 | 28076 ft | 374 kts | 331° |
| 2026-05-05 22:33 | 39.88826 | -85.38521 | 27863 ft | 358 kts | 331° |
| 2026-05-05 22:33 | 39.91114 | -85.39613 | 27854 ft | 340 kts | 330° |
| 2026-05-05 22:34 | 39.93282 | -85.40661 | 27851 ft | 326 kts | 330° |
| 2026-05-05 22:34 | 39.95379 | -85.41679 | 27847 ft | 316 kts | 329° |
| 2026-05-05 22:34 | 39.97428 | -85.42672 | 27830 ft | 314 kts | 329° |
| 2026-05-05 22:34 | 39.99454 | -85.43656 | 27820 ft | 319 kts | 329° |
| 2026-05-05 22:35 | 40.01569 | -85.44684 | 27850 ft | 333 kts | 330° |
| 2026-05-05 22:35 | 40.03810 | -85.45778 | 27860 ft | 357 kts | 330° |
| 2026-05-05 22:35 | 40.06237 | -85.46952 | 27880 ft | 382 kts | 331° |
| 2026-05-05 22:35 | 40.08810 | -85.48190 | 27907 ft | 406 kts | 332° |
| 2026-05-05 22:36 | 40.11536 | -85.49508 | 27908 ft | 430 kts | 332° |
| 2026-05-05 22:36 | 40.14416 | -85.50906 | 27908 ft | 453 kts | 332° |
| 2026-05-05 22:36 | 40.17428 | -85.52366 | 27923 ft | 467 kts | 332° |
| 2026-05-05 22:36 | 40.20405 | -85.53784 | 27928 ft | 436 kts | 332° |
| 2026-05-05 22:37 | 40.23106 | -85.55073 | 27914 ft | 398 kts | 331° |
| 2026-05-05 22:37 | 40.25582 | -85.56281 | 27890 ft | 364 kts | 330° |
| 2026-05-05 22:37 | 40.27895 | -85.57432 | 27858 ft | 350 kts | 329° |
| 2026-05-05 22:37 | 40.30149 | -85.58547 | 27837 ft | 346 kts | 330° |
| 2026-05-05 22:38 | 40.32430 | -85.59662 | 27835 ft | 356 kts | 330° |
| 2026-05-05 22:38 | 40.34808 | -85.60829 | 27890 ft | 374 kts | 330° |
| 2026-05-05 22:38 | 40.37301 | -85.62047 | 27894 ft | 391 kts | 331° |
| 2026-05-05 22:38 | 40.39909 | -85.63318 | 27905 ft | 408 kts | 331° |
| 2026-05-05 22:39 | 40.42625 | -85.64645 | 27914 ft | 425 kts | 331° |
| 2026-05-05 22:39 | 40.45401 | -85.66005 | 27919 ft | 442 kts | 332° |
| 2026-05-05 22:39 | 40.48339 | -85.67452 | 27913 ft | 456 kts | 330° |
| 2026-05-05 22:39 | 40.51196 | -85.69288 | 27927 ft | 463 kts | 323° |
| 2026-05-05 22:40 | 40.54058 | -85.71385 | 27910 ft | 471 kts | 323° |
| 2026-05-05 22:40 | 40.56938 | -85.73491 | 27919 ft | 475 kts | 323° |
| 2026-05-05 22:40 | 40.59811 | -85.75600 | 27901 ft | 474 kts | 323° |
| 2026-05-05 22:40 | 40.62691 | -85.77722 | 27910 ft | 474 kts | 323° |
| 2026-05-05 22:41 | 40.65567 | -85.79843 | 27913 ft | 474 kts | 323° |
| 2026-05-05 22:41 | 40.68441 | -85.81961 | 27973 ft | 474 kts | 323° |
| 2026-05-05 22:41 | 40.71319 | -85.84083 | 27962 ft | 473 kts | 323° |
| 2026-05-05 22:41 | 40.74154 | -85.86177 | 27898 ft | 473 kts | 323° |
| 2026-05-05 22:42 | 40.77030 | -85.88306 | 27546 ft | 477 kts | 323° |
| 2026-05-05 22:42 | 40.79912 | -85.90440 | 26810 ft | 472 kts | 323° |
| 2026-05-05 22:42 | 40.82762 | -85.92543 | 26089 ft | 466 kts | 323° |
| 2026-05-05 22:42 | 40.85573 | -85.94627 | 25364 ft | 461 kts | 323° |
| 2026-05-05 22:43 | 40.88334 | -85.96683 | 24700 ft | 457 kts | 323° |
| 2026-05-05 22:43 | 40.91111 | -85.98748 | 24021 ft | 454 kts | 323° |
| 2026-05-05 22:43 | 40.93857 | -86.00789 | 23353 ft | 451 kts | 323° |
| 2026-05-05 22:43 | 40.96544 | -86.02787 | 22582 ft | 449 kts | 323° |
| 2026-05-05 22:44 | 40.99262 | -86.04813 | 21833 ft | 446 kts | 323° |
| 2026-05-05 22:44 | 41.01954 | -86.06823 | 21105 ft | 444 kts | 323° |
| 2026-05-05 22:44 | 41.04633 | -86.08823 | 20394 ft | 441 kts | 323° |
| 2026-05-05 22:44 | 41.07289 | -86.10806 | 19686 ft | 436 kts | 323° |
| 2026-05-05 22:45 | 41.09921 | -86.12774 | 19003 ft | 432 kts | 323° |
| 2026-05-05 22:45 | 41.12530 | -86.14729 | 18335 ft | 429 kts | 323° |
| 2026-05-05 22:45 | 41.15114 | -86.16668 | 17587 ft | 426 kts | 324° |
| 2026-05-05 22:45 | 41.17644 | -86.18566 | 16839 ft | 423 kts | 324° |
| 2026-05-05 22:46 | 41.20202 | -86.20485 | 16104 ft | 420 kts | 324° |
| 2026-05-05 22:46 | 41.22726 | -86.22383 | 15387 ft | 417 kts | 325° |
| 2026-05-05 22:46 | 41.25252 | -86.24282 | 14686 ft | 414 kts | 325° |
| 2026-05-05 22:46 | 41.27744 | -86.26158 | 14109 ft | 409 kts | 325° |
| 2026-05-05 22:47 | 41.30187 | -86.27994 | 13895 ft | 394 kts | 325° |
| 2026-05-05 22:47 | 41.32515 | -86.29744 | 13879 ft | 376 kts | 325° |
| 2026-05-05 22:47 | 41.34736 | -86.31420 | 13868 ft | 360 kts | 324° |
| 2026-05-05 22:47 | 41.36921 | -86.33082 | 13870 ft | 361 kts | 324° |
| 2026-05-05 22:48 | 41.39101 | -86.34733 | 13877 ft | 361 kts | 325° |
| 2026-05-05 22:48 | 41.41247 | -86.36352 | 13876 ft | 360 kts | 324° |
| 2026-05-05 22:48 | 41.43423 | -86.37997 | 13877 ft | 359 kts | 324° |
| 2026-05-05 22:48 | 41.45595 | -86.39644 | 13877 ft | 358 kts | 324° |
| 2026-05-05 22:49 | 41.47754 | -86.41282 | 13881 ft | 357 kts | 324° |
| 2026-05-05 22:49 | 41.49915 | -86.42921 | 13886 ft | 357 kts | 324° |
| 2026-05-05 22:49 | 41.52069 | -86.44556 | 13888 ft | 356 kts | 324° |
| 2026-05-05 22:49 | 41.54216 | -86.46188 | 13893 ft | 355 kts | 324° |
| 2026-05-05 22:50 | 41.56359 | -86.47818 | 13892 ft | 354 kts | 324° |
| 2026-05-05 22:50 | 41.58466 | -86.49422 | 13891 ft | 353 kts | 324° |
| 2026-05-05 22:50 | 41.60598 | -86.51046 | 13891 ft | 352 kts | 324° |
| 2026-05-05 22:50 | 41.62723 | -86.52666 | 13890 ft | 352 kts | 324° |
| 2026-05-05 22:51 | 41.64842 | -86.54283 | 13892 ft | 351 kts | 324° |
| 2026-05-05 22:51 | 41.66968 | -86.55906 | 13894 ft | 351 kts | 324° |
| 2026-05-05 22:51 | 41.69079 | -86.57519 | 13894 ft | 350 kts | 324° |
| 2026-05-05 22:51 | 41.71200 | -86.59141 | 13904 ft | 350 kts | 324° |
| 2026-05-05 22:52 | 41.73310 | -86.60755 | 13904 ft | 350 kts | 324° |
| 2026-05-05 22:52 | 41.75426 | -86.62376 | 13905 ft | 350 kts | 324° |
| 2026-05-05 22:52 | 41.77515 | -86.63977 | 13905 ft | 350 kts | 324° |
| 2026-05-05 22:52 | 41.79624 | -86.65595 | 13903 ft | 350 kts | 324° |
| 2026-05-05 22:53 | 41.81738 | -86.67218 | 13906 ft | 350 kts | 324° |
| 2026-05-05 22:53 | 41.83846 | -86.68837 | 13905 ft | 350 kts | 324° |
| 2026-05-05 22:53 | 41.85960 | -86.70462 | 13906 ft | 350 kts | 324° |
| 2026-05-05 22:53 | 41.88071 | -86.72086 | 13905 ft | 350 kts | 324° |
| 2026-05-05 22:54 | 41.90180 | -86.73710 | 13902 ft | 350 kts | 324° |
| 2026-05-05 22:54 | 41.92294 | -86.75339 | 13900 ft | 350 kts | 324° |
| 2026-05-05 22:54 | 41.94408 | -86.76969 | 13901 ft | 350 kts | 324° |
| 2026-05-05 22:54 | 41.96496 | -86.78580 | 13897 ft | 351 kts | 323° |
| 2026-05-05 22:55 | 41.98610 | -86.80213 | 13894 ft | 351 kts | 324° |
| 2026-05-05 22:55 | 42.00723 | -86.81846 | 13897 ft | 351 kts | 323° |
| 2026-05-05 22:55 | 42.02838 | -86.83483 | 13892 ft | 351 kts | 323° |
| 2026-05-05 22:55 | 42.04952 | -86.85118 | 13892 ft | 351 kts | 323° |
| 2026-05-05 22:56 | 42.07069 | -86.86759 | 13890 ft | 351 kts | 323° |
| 2026-05-05 22:56 | 42.09183 | -86.88398 | 13892 ft | 351 kts | 323° |
| 2026-05-05 22:56 | 42.11293 | -86.90035 | 13891 ft | 350 kts | 323° |
| 2026-05-05 22:56 | 42.13376 | -86.91652 | 13886 ft | 350 kts | 323° |
| 2026-05-05 22:57 | 42.15480 | -86.93287 | 13893 ft | 349 kts | 323° |
| 2026-05-05 22:57 | 42.17588 | -86.94927 | 13894 ft | 349 kts | 323° |
| 2026-05-05 22:57 | 42.19691 | -86.96563 | 13886 ft | 349 kts | 323° |
| 2026-05-05 22:57 | 42.21793 | -86.98201 | 13892 ft | 348 kts | 323° |
| 2026-05-05 22:58 | 42.23894 | -86.99839 | 13890 ft | 349 kts | 323° |
| 2026-05-05 22:58 | 42.25990 | -87.01474 | 13895 ft | 348 kts | 323° |
| 2026-05-05 22:58 | 42.28088 | -87.03111 | 13893 ft | 348 kts | 323° |
| 2026-05-05 22:58 | 42.30180 | -87.04745 | 13894 ft | 348 kts | 323° |
| 2026-05-05 22:59 | 42.32274 | -87.06383 | 13889 ft | 347 kts | 323° |
| 2026-05-05 22:59 | 42.34333 | -87.07994 | 13880 ft | 347 kts | 323° |
| 2026-05-05 22:59 | 42.36420 | -87.09629 | 13880 ft | 346 kts | 323° |
| 2026-05-05 22:59 | 42.38500 | -87.11259 | 13882 ft | 346 kts | 323° |
| 2026-05-05 23:00 | 42.42666 | -87.14528 | 13889 ft | 345 kts | 323° |
| 2026-05-05 23:00 | 42.44743 | -87.16160 | 13892 ft | 345 kts | 322° |
| 2026-05-05 23:00 | 42.46823 | -87.17796 | 13889 ft | 346 kts | 322° |
| 2026-05-05 23:01 | 42.48932 | -87.19461 | 13891 ft | 363 kts | 322° |
| 2026-05-05 23:01 | 42.51209 | -87.21274 | 13898 ft | 396 kts | 323° |
| 2026-05-05 23:01 | 42.53659 | -87.23202 | 13896 ft | 415 kts | 323° |
| 2026-05-05 23:01 | 42.56140 | -87.25133 | 13888 ft | 419 kts | 324° |
| 2026-05-05 23:02 | 42.58669 | -87.27123 | 13887 ft | 426 kts | 323° |
| 2026-05-05 23:02 | 42.61298 | -87.29227 | 13888 ft | 452 kts | 323° |
| 2026-05-05 23:02 | 42.64048 | -87.31409 | 13886 ft | 463 kts | 324° |
| 2026-05-05 23:02 | 42.66857 | -87.33610 | 13882 ft | 466 kts | 324° |
| 2026-05-05 23:03 | 42.69664 | -87.35824 | 13880 ft | 467 kts | 323° |
| 2026-05-05 23:03 | 42.72469 | -87.38061 | 13887 ft | 467 kts | 323° |
| 2026-05-05 23:03 | 42.75267 | -87.40292 | 13881 ft | 468 kts | 323° |
| 2026-05-05 23:03 | 42.78085 | -87.42529 | 13882 ft | 468 kts | 323° |
| 2026-05-05 23:04 | 42.80861 | -87.44734 | 13884 ft | 468 kts | 323° |
| 2026-05-05 23:04 | 42.83669 | -87.46974 | 13884 ft | 468 kts | 323° |
| 2026-05-05 23:04 | 42.86474 | -87.49216 | 13879 ft | 468 kts | 323° |
| 2026-05-05 23:04 | 42.89076 | -87.51784 | 13881 ft | 458 kts | 312° |
| 2026-05-05 23:05 | 42.91144 | -87.54956 | 13874 ft | 434 kts | 300° |
| 2026-05-05 23:05 | 42.92544 | -87.58408 | 13857 ft | 398 kts | 288° |
| 2026-05-05 23:05 | 42.93221 | -87.61880 | 13866 ft | 357 kts | 274° |
| 2026-05-05 23:05 | 42.93140 | -87.64969 | 13871 ft | 299 kts | 257° |
| 2026-05-05 23:06 | 42.92335 | -87.67332 | 13883 ft | 274 kts | 236° |
| 2026-05-05 23:06 | 42.90838 | -87.68953 | 13876 ft | 281 kts | 213° |
| 2026-05-05 23:06 | 42.88879 | -87.69530 | 13879 ft | 299 kts | 189° |
| 2026-05-05 23:06 | 42.86779 | -87.68984 | 13895 ft | 310 kts | 175° |
| 2026-05-05 23:07 | 42.84678 | -87.68676 | 13889 ft | 301 kts | 188° |
| 2026-05-05 23:07 | 42.82635 | -87.68672 | 13880 ft | 276 kts | 189° |
| 2026-05-05 23:07 | 42.80844 | -87.68546 | 13852 ft | 239 kts | 186° |
| 2026-05-05 23:07 | 42.79297 | -87.68317 | 13829 ft | 210 kts | 187° |
| 2026-05-05 23:08 | 42.77916 | -87.68124 | 13761 ft | 194 kts | 189° |
| 2026-05-05 23:08 | 42.76506 | -87.67981 | 13594 ft | 214 kts | 188° |
| 2026-05-05 23:08 | 42.74946 | -87.67811 | 13680 ft | 246 kts | 186° |
| 2026-05-05 23:08 | 42.73154 | -87.67583 | 13821 ft | 268 kts | 185° |
| 2026-05-05 23:09 | 42.71278 | -87.67317 | 13886 ft | 273 kts | 185° |
| 2026-05-05 23:09 | 42.69396 | -87.67065 | 13888 ft | 273 kts | 185° |
| 2026-05-05 23:09 | 42.67502 | -87.66830 | 13888 ft | 273 kts | 185° |
| 2026-05-05 23:09 | 42.65619 | -87.66595 | 13732 ft | 272 kts | 185° |
| 2026-05-05 23:10 | 42.63745 | -87.66358 | 13505 ft | 270 kts | 185° |
| 2026-05-05 23:10 | 42.61871 | -87.66121 | 13250 ft | 270 kts | 185° |
| 2026-05-05 23:10 | 42.60003 | -87.65885 | 12955 ft | 271 kts | 184° |
| 2026-05-05 23:10 | 42.58165 | -87.65652 | 12523 ft | 264 kts | 184° |
| 2026-05-05 23:11 | 42.56380 | -87.65418 | 12088 ft | 251 kts | 184° |
| 2026-05-05 23:11 | 42.54700 | -87.65201 | 11670 ft | 234 kts | 185° |
| 2026-05-05 23:11 | 42.53134 | -87.65004 | 11285 ft | 219 kts | 185° |
| 2026-05-05 23:11 | 42.51665 | -87.64821 | 11007 ft | 204 kts | 185° |
| 2026-05-05 23:12 | 42.50324 | -87.64648 | 10913 ft | 184 kts | 186° |
| 2026-05-05 23:12 | 42.49078 | -87.64498 | 10860 ft | 181 kts | 187° |
| 2026-05-05 23:12 | 42.47838 | -87.64349 | 10804 ft | 179 kts | 187° |
| 2026-05-05 23:12 | 42.46596 | -87.64196 | 10750 ft | 179 kts | 187° |
| 2026-05-05 23:13 | 42.45362 | -87.64040 | 10698 ft | 178 kts | 186° |
| 2026-05-05 23:13 | 42.44144 | -87.63888 | 10633 ft | 178 kts | 186° |
| 2026-05-05 23:13 | 42.42910 | -87.63733 | 10564 ft | 178 kts | 186° |
| 2026-05-05 23:13 | 42.41673 | -87.63577 | 10507 ft | 178 kts | 186° |
| 2026-05-05 23:14 | 42.40435 | -87.63421 | 10442 ft | 178 kts | 186° |
| 2026-05-05 23:14 | 42.39201 | -87.63266 | 10370 ft | 178 kts | 186° |
| 2026-05-05 23:14 | 42.37976 | -87.63111 | 10296 ft | 176 kts | 186° |
| 2026-05-05 23:14 | 42.36760 | -87.62960 | 10227 ft | 175 kts | 186° |
| 2026-05-05 23:15 | 42.35549 | -87.62809 | 10154 ft | 175 kts | 186° |
| 2026-05-05 23:15 | 42.34351 | -87.62659 | 10097 ft | 175 kts | 186° |
| 2026-05-05 23:15 | 42.33141 | -87.62507 | 10029 ft | 174 kts | 186° |
| 2026-05-05 23:15 | 42.31931 | -87.62357 | 9868 ft | 177 kts | 186° |
| 2026-05-05 23:16 | 42.30720 | -87.62203 | 9650 ft | 169 kts | 186° |
| 2026-05-05 23:16 | 42.29527 | -87.62059 | 9471 ft | 176 kts | 186° |
| 2026-05-05 23:16 | 42.28327 | -87.61905 | 9231 ft | 174 kts | 185° |
| 2026-05-05 23:16 | 42.27116 | -87.61755 | 8994 ft | 174 kts | 184° |
| 2026-05-05 23:17 | 42.25920 | -87.61607 | 8757 ft | 176 kts | 184° |
| 2026-05-05 23:17 | 42.24702 | -87.61454 | 8530 ft | 176 kts | 184° |
| 2026-05-05 23:17 | 42.23483 | -87.61301 | 8305 ft | 176 kts | 183° |
| 2026-05-05 23:17 | 42.22257 | -87.61149 | 8064 ft | 177 kts | 182° |
| 2026-05-05 23:18 | 42.21032 | -87.60996 | 7847 ft | 178 kts | 182° |
| 2026-05-05 23:18 | 42.19798 | -87.60842 | 7621 ft | 178 kts | 181° |
| 2026-05-05 23:18 | 42.18565 | -87.60689 | 7384 ft | 179 kts | 181° |
| 2026-05-05 23:18 | 42.17328 | -87.60534 | 7153 ft | 179 kts | 181° |
| 2026-05-05 23:19 | 42.16084 | -87.60379 | 6919 ft | 180 kts | 180° |
| 2026-05-05 23:19 | 42.14839 | -87.60224 | 6706 ft | 180 kts | 180° |
| 2026-05-05 23:19 | 42.13608 | -87.60071 | 6485 ft | 180 kts | 179° |
| 2026-05-05 23:19 | 42.12357 | -87.59916 | 6253 ft | 181 kts | 179° |
| 2026-05-05 23:20 | 42.11106 | -87.59759 | 6020 ft | 180 kts | 179° |
| 2026-05-05 23:20 | 42.09862 | -87.59604 | 5807 ft | 178 kts | 179° |
| 2026-05-05 23:20 | 42.08630 | -87.59451 | 5651 ft | 177 kts | 178° |
| 2026-05-05 23:20 | 42.07390 | -87.59298 | 5568 ft | 178 kts | 179° |
| 2026-05-05 23:21 | 42.06154 | -87.59143 | 5499 ft | 178 kts | 179° |
| 2026-05-05 23:21 | 42.04918 | -87.58990 | 5409 ft | 178 kts | 178° |
| 2026-05-05 23:21 | 42.03685 | -87.58838 | 5330 ft | 178 kts | 178° |
| 2026-05-05 23:21 | 42.02454 | -87.58685 | 5229 ft | 178 kts | 178° |
| 2026-05-05 23:22 | 42.01242 | -87.58534 | 5147 ft | 177 kts | 178° |
| 2026-05-05 23:22 | 42.00020 | -87.58520 | 5012 ft | 175 kts | 199° |
| 2026-05-05 23:22 | 41.99092 | -87.59428 | 4926 ft | 165 kts | 238° |
| 2026-05-05 23:22 | 41.98766 | -87.60843 | 4680 ft | 154 kts | 276° |
| 2026-05-05 23:23 | 41.98797 | -87.62318 | 4479 ft | 157 kts | 271° |
| 2026-05-05 23:23 | 41.98805 | -87.63794 | 4313 ft | 159 kts | 272° |
| 2026-05-05 23:23 | 41.98824 | -87.65280 | 4137 ft | 159 kts | 272° |
| 2026-05-05 23:23 | 41.98827 | -87.66761 | 3930 ft | 158 kts | 272° |
| 2026-05-05 23:24 | 41.98827 | -87.68241 | 3718 ft | 157 kts | 272° |
| 2026-05-05 23:24 | 41.98827 | -87.69701 | 3527 ft | 158 kts | 272° |
| 2026-05-05 23:24 | 41.98827 | -87.71184 | 3313 ft | 158 kts | 272° |
| 2026-05-05 23:24 | 41.98828 | -87.72654 | 3102 ft | 156 kts | 272° |
| 2026-05-05 23:25 | 41.98828 | -87.74125 | 2886 ft | 157 kts | 273° |
| 2026-05-05 23:25 | 41.98827 | -87.75596 | 2674 ft | 157 kts | 272° |
| 2026-05-05 23:25 | 41.98828 | -87.77043 | 2460 ft | 158 kts | 272° |
| 2026-05-05 23:25 | 41.98828 | -87.78506 | 2246 ft | 159 kts | 272° |
| 2026-05-05 23:26 | 41.98828 | -87.79974 | 2017 ft | 158 kts | 272° |
| 2026-05-05 23:26 | 41.98826 | -87.81401 | 1812 ft | 152 kts | 272° |
| 2026-05-05 23:26 | 41.98827 | -87.82835 | 1606 ft | 153 kts | 273° |
| 2026-05-05 23:26 | 41.98828 | -87.84294 | 1389 ft | 157 kts | 271° |
| 2026-05-05 23:27 | 41.98828 | -87.85732 | 1212 ft | 156 kts | 272° |
| 2026-05-05 23:27 | 41.98833 | -87.87143 | 991 ft | 150 kts | 274° |
| 2026-05-05 23:27 | 41.98831 | -87.88555 | 774 ft | 146 kts | 271° |
| 2026-05-05 23:27 | 41.98830 | -87.89916 | 667 ft | 134 kts | 271° |
| 2026-05-05 23:28 | 41.98831 | -87.90899 | 673 ft | 75 kts | 270° |
| 2026-05-05 23:28 | 41.98830 | -87.91334 | 669 ft | 24 kts | 270° |
| 2026-05-05 23:28 | 41.98829 | -87.91625 | 673 ft | 22 kts | 269° |
| 2026-05-05 23:28 | 41.98805 | -87.91826 | 674 ft | 43 kts | 247° |
| 2026-05-05 23:29 | 41.98712 | -87.92080 | 675 ft | 0 kts | 217° |
| 2026-05-05 23:30 | 41.98693 | -87.92117 | 674 ft | 9 kts | 245° |
| 2026-05-05 23:30 | 41.98693 | -87.92236 | 680 ft | 17 kts | 275° |
| 2026-05-05 23:30 | 41.98682 | -87.92362 | 675 ft | 9 kts | 244° |
| 2026-05-05 23:31 | 41.98656 | -87.92397 | 675 ft | 3 kts | 207° |
| 2026-05-05 23:31 | 41.98558 | -87.92410 | 675 ft | 23 kts | 179° |
| 2026-05-05 23:31 | 41.98385 | -87.92403 | 672 ft | 26 kts | 184° |
| 2026-05-05 23:31 | 41.98203 | -87.92417 | 675 ft | 25 kts | 179° |
| 2026-05-05 23:32 | 41.98099 | -87.92345 | 674 ft | 13 kts | 109° |
| 2026-05-05 23:32 | 41.98096 | -87.92277 | 672 ft | 3 kts | 101° |
| 2026-05-05 23:32 | 41.98088 | -87.92251 | 675 ft | 3 kts | 116° |
| 2026-05-05 23:32 | 41.98063 | -87.92205 | 674 ft | 13 kts | 131° |
| 2026-05-05 23:33 | 41.97928 | -87.92038 | 675 ft | 40 kts | 140° |
| 2026-05-05 23:33 | 41.97657 | -87.91733 | 678 ft | 54 kts | 136° |
| 2026-05-05 23:33 | 41.97558 | -87.91503 | 675 ft | 20 kts | 114° |
| 2026-05-05 23:33 | 41.97483 | -87.91362 | 677 ft | 18 kts | 134° |
| 2026-05-05 23:34 | 41.97374 | -87.91230 | 675 ft | 26 kts | 141° |
| 2026-05-05 23:34 | 41.97219 | -87.91055 | 673 ft | 30 kts | 139° |
| 2026-05-05 23:34 | 41.97071 | -87.90880 | 674 ft | 17 kts | 116° |
| 2026-05-05 23:34 | 41.97060 | -87.90763 | 673 ft | 10 kts | 110° |
| 2026-05-05 23:35 | 41.97043 | -87.90673 | 673 ft | 10 kts | 95° |
| 2026-05-05 23:35 | 41.97044 | -87.90569 | 672 ft | 12 kts | 92° |
| 2026-05-05 23:35 | 41.97043 | -87.90438 | 672 ft | 17 kts | 90° |
| 2026-05-05 23:35 | 41.97043 | -87.90250 | 673 ft | 23 kts | 90° |
| 2026-05-05 23:36 | 41.97045 | -87.90012 | 674 ft | 28 kts | 90° |
| 2026-05-05 23:36 | 41.97044 | -87.89718 | 672 ft | 35 kts | 91° |
| 2026-05-05 23:36 | 41.97045 | -87.89362 | 672 ft | 42 kts | 88° |
| 2026-05-05 23:36 | 41.97045 | -87.88995 | 666 ft | 20 kts | 83° |
| 2026-05-05 23:37 | 41.97071 | -87.88938 | 665 ft | 2 kts | 28° |
| 2026-05-05 23:37 | 41.97123 | -87.88930 | 667 ft | 11 kts | 2° |
| 2026-05-05 23:37 | 41.97171 | -87.88914 | 666 ft | 6 kts | 36° |
| 2026-05-05 23:37 | 41.97192 | -87.88853 | 666 ft | 11 kts | 80° |
| 2026-05-05 23:38 | 41.97198 | -87.88733 | 665 ft | 12 kts | 85° |
| 2026-05-05 23:38 | 41.97218 | -87.88675 | 665 ft | 2 kts | 41° |
| 2026-05-05 23:38 | 41.97245 | -87.88661 | 666 ft | 3 kts | 19° |
| 2026-05-05 23:38 | 41.97265 | -87.88653 | 666 ft | 4 kts | 16° |
| 2026-05-05 23:39 | 41.97299 | -87.88644 | 667 ft | 5 kts | 5° |
| 2026-05-05 23:39 | 41.97341 | -87.88644 | 668 ft | 6 kts | 359° |
| 2026-05-05 23:39 | 41.97342 | -87.88644 | 668 ft | 0 kts | 0° |